Don's Testing Zone


Current Conditions
weather data
source:

National Weather Service
Cloudy Little Rock, AR
Cloudy, 66°F
Saturday, April 21, 2018 6:53 PM CDT
Temperature: 66°F/19°C
Humidity: 52%
Barometer: 30.02in/1016.7mb Barometer Steady
Wind: W at 102mph/165kmh
Wind Advisory
View other cities:
Searcy | Little Rock | Hot Springs | Russellville | More...
Astronomical Conditions (Clear Sky Clock)
Searcy Clear Sky Clock
Find more weather in Little Rock, AR
    

Radar Images

NWS
    Wx Underground

KARK
   

Solar-Terrestrial Data

NWS METAR weather data

ADDS - METARS form results





Aviation Digital Data Service (ADDS) Output produced by METARs form (0015 UTC 22 April 2018) found at http://aviationweather.gov/adds/metars/ 

KLIT 212353Z 10010KT 10SM FEW100 OVC150 19/09 A3002 RMK AO2 SLP167 T0189009410228 20189 58013

KLIT 212253Z 07004KT 10SM FEW040 FEW090 SCT120 OVC200 19/11 A3007 RMK AO2 SLP182T01940111

KLIT 212153Z 19003KT 10SM FEW039 FEW090 BKN120 OVC200 20/09 A3007 RMK AO2 SLP185T02000094

KLIT 212053Z 13011KT 10SM FEW070 BKN120 OVC200 21/09 A3006 RMK AO2 SLP180T02060089 55017

KLIT 211953Z 12013G21KT 10SM FEW070 BKN120 OVC200 21/08 A3005 RMK AO2 SLP178T02110083

KLIT 211853Z 13013G20KT 10SM FEW070 BKN120 OVC200 22/08 A3009 RMK AO2 SLP190T02220078

KLIT 211753Z 12010G22KT 10SM FEW070 BKN120 BKN200 21/08 A3011 RMK AO2 SLP19860000 T02060078 10222 20078 58026

KLIT 211653Z 12010KT 10SM FEW065 BKN120 BKN200 19/08 A3015 RMK AO2 SLP212T01940078

KLIT 211553Z 12007KT 10SM SCT065 BKN120 OVC200 16/07 A3019 RMK AO2 RAB12E23SLP225 P0000 T01560072

KLIT 211453Z 11009KT 10SM BKN100 OVC200 14/06 A3019 RMK AO2 SLP225 T0139006158005

KLIT 211353Z 09011KT 10SM BKN100 BKN250 13/06 A3020 RMK AO2 SLP227 T01330061

KLIT 211253Z 06005KT 10SM BKN150 BKN250 11/06 A3022 RMK AO2 SLP237 T01060061

KLIT 211153Z 01004KT 10SM BKN120 BKN250 08/05 A3020 RMK AO2 SLP230 T0083005010111 20078 53003

KLIT 211053Z 05004KT 10SM BKN120 08/04 A3019 RMK AO2 SLP224 T00830044

KLIT 210953Z 06004KT 10SM SCT250 08/04 A3019 RMK AO2 SLP223 T00830039

KLIT 210853Z 34003KT 10SM SCT250 09/04 A3020 RMK AO2 SLP226 T00890044 55003

KLIT 210753Z 06004KT 10SM CLR 10/04 A3018 RMK AO2 SLP222 T01000044

KLIT 210653Z 00000KT 10SM SCT250 11/04 A3020 RMK AO2 SLP228 T01060039

KLIT 210553Z 07005KT 10SM SCT250 09/04 A3020 RMK AO2 SLP230 T00890039 1017820089 402000033 56006

KLIT 210453Z 05006KT 10SM BKN250 10/04 A3020 RMK AO2 SLP231 T01000044

KLIT 210353Z 04003KT 10SM BKN250 11/04 A3022 RMK AO2 SLP234 T01060039

KLIT 210253Z 00000KT 10SM SCT250 12/04 A3022 RMK AO2 SLP236 T01220039 50005

KLIT 210153Z 05003KT 10SM SCT250 15/02 A3023 RMK AO2 SLP238 T01500022

KLIT 210053Z 08005KT 10SM BKN250 15/02 A3020 RMK AO2 SLP230 T01500017